createdAt,value
2022-10-18T00:00:07.454Z,96219.02
2022-10-18T00:02:34.508Z,96218.33
2022-10-18T00:05:01.323Z,96217.55
2022-10-18T00:07:28.221Z,96212.36
2022-10-18T00:09:55.177Z,96212.58
2022-10-18T00:12:21.931Z,96213.20
2022-10-18T00:14:51.061Z,96212.42
2022-10-18T00:17:18.553Z,96215.05
2022-10-18T00:19:46.748Z,96213.41
2022-10-18T00:22:13.486Z,96215.02
2022-10-18T00:24:40.226Z,96212.06
2022-10-18T00:27:06.960Z,96210.09
2022-10-18T00:29:33.717Z,96208.67
2022-10-18T00:32:00.522Z,96203.45
2022-10-18T00:34:27.318Z,96206.33
2022-10-18T00:36:55.246Z,96204.59
2022-10-18T00:39:22.656Z,96194.23
2022-10-18T00:41:50.462Z,96190.49
2022-10-18T00:44:17.138Z,96191.83
2022-10-18T00:46:49.464Z,96189.27
2022-10-18T00:49:19.574Z,96188.45
2022-10-18T00:51:51.479Z,96186.30
2022-10-18T00:54:20.924Z,96185.02
2022-10-18T00:56:47.787Z,96179.93
2022-10-18T00:59:17.011Z,96183.98
2022-10-18T01:01:44.776Z,96181.73
2022-10-18T01:04:13.729Z,96177.50
2022-10-18T01:06:53.876Z,96174.89
2022-10-18T01:09:39.001Z,96175.09
2022-10-18T01:12:29.809Z,96173.11
2022-10-18T01:15:11.903Z,96169.73
2022-10-18T01:17:58.093Z,96168.13
2022-10-18T01:20:54.543Z,96169.88
2022-10-18T01:23:39.870Z,96165.33
2022-10-18T01:26:39.975Z,96158.49
2022-10-18T01:29:44.464Z,96158.35
2022-10-18T01:32:17.761Z,96154.78
2022-10-18T01:34:47.794Z,96155.75
2022-10-18T01:37:18.018Z,96152.64
2022-10-18T01:39:48.191Z,96154.58
2022-10-18T01:42:19.939Z,96149.42
2022-10-18T01:44:48.567Z,96145.42
2022-10-18T01:47:17.012Z,96145.34
2022-10-18T01:49:43.845Z,96142.32
2022-10-18T01:52:15.265Z,96140.66
2022-10-18T07:02:01.472Z,96123.36
2022-10-18T07:04:29.893Z,96124.36
2022-10-18T07:06:56.805Z,96125.20
2022-10-18T07:09:23.607Z,96125.84
2022-10-18T07:11:50.408Z,96126.95
2022-10-18T07:14:17.093Z,96129.35
2022-10-18T07:16:43.852Z,96130.56
2022-10-18T07:19:10.603Z,96127.58
2022-10-18T07:21:37.377Z,96127.38
2022-10-18T07:24:04.238Z,96128.18
2022-10-18T07:26:33.401Z,96130.95
2022-10-18T07:29:06.310Z,96126.14
2022-10-18T07:31:34.385Z,96125.27
2022-10-18T07:34:04.053Z,96121.05
2022-10-18T07:36:30.816Z,96119.52
2022-10-18T07:38:57.669Z,96120.77
2022-10-18T07:41:24.424Z,96122.78
2022-10-18T07:43:52.781Z,96119.94
2022-10-18T07:46:21.822Z,96118.56
2022-10-18T07:48:49.399Z,96117.98
2022-10-18T07:51:16.933Z,96114.61
2022-10-18T07:53:43.984Z,96106.00
2022-10-18T07:56:18.465Z,96111.63
2022-10-18T07:58:46.475Z,96108.36
2022-10-18T08:01:14.663Z,96106.95
2022-10-18T08:03:43.232Z,96101.30
2022-10-18T08:06:12.578Z,96102.62
2022-10-18T08:08:40.692Z,96105.48
2022-10-18T08:11:20.013Z,96109.02
2022-10-18T08:13:47.856Z,96108.69
2022-10-18T08:16:18.329Z,96102.27
2022-10-18T08:18:45.429Z,96100.23
2022-10-18T08:21:14.139Z,96100.44
2022-10-18T08:23:41.299Z,96096.77
2022-10-18T08:26:13.989Z,96102.84
2022-10-18T08:28:46.061Z,96097.42
2022-10-18T08:31:20.943Z,96092.44
2022-10-18T08:33:47.824Z,96089.71
2022-10-18T08:36:16.665Z,96088.09
2022-10-18T08:38:44.114Z,96083.31
2022-10-18T08:41:30.482Z,96079.38
2022-10-18T08:44:18.420Z,96082.64
2022-10-18T08:46:52.081Z,96077.63
2022-10-18T08:49:41.844Z,96080.40
2022-10-18T08:52:26.588Z,96077.01
2022-10-18T08:55:00.975Z,96074.35
2022-10-18T08:57:28.235Z,96071.23
2022-10-18T08:59:54.941Z,96062.73
2022-10-18T09:02:31.277Z,96067.09
2022-10-18T09:05:20.643Z,96064.39
2022-10-18T09:08:18.513Z,96058.53
2022-10-18T09:10:56.229Z,96055.09
2022-10-18T09:13:32.327Z,96054.93
2022-10-18T09:16:01.623Z,96051.89
2022-10-18T09:18:53.135Z,96048.94
2022-10-18T09:21:25.439Z,96048.00
2022-10-18T09:24:13.517Z,96048.94
2022-10-18T09:26:47.381Z,96045.36
2022-10-18T09:29:38.164Z,96044.39
2022-10-18T09:32:31.830Z,96035.61
2022-10-18T09:35:26.153Z,96032.55
2022-10-18T09:38:03.981Z,96033.60
2022-10-18T09:40:36.517Z,96030.00
2022-10-18T09:43:23.963Z,96031.97
2022-10-18T09:45:54.753Z,96021.92
2022-10-18T09:48:27.999Z,96019.17
2022-10-18T09:51:01.124Z,96016.75
2022-10-18T09:53:45.070Z,96016.79
2022-10-18T09:56:28.201Z,96011.85
2022-10-18T09:58:54.881Z,96005.45
2022-10-18T10:01:25.647Z,96002.14
2022-10-18T10:03:53.112Z,96001.29
2022-10-18T10:06:34.886Z,95997.81
2022-10-18T10:09:08.258Z,95997.06
2022-10-18T10:11:45.546Z,95988.46
2022-10-18T10:14:19.661Z,95987.59
2022-10-18T10:17:04.009Z,95983.40
2022-10-18T10:19:38.102Z,95980.66
2022-10-18T10:22:13.516Z,95980.57
2022-10-18T10:24:50.957Z,95970.92
2022-10-18T10:27:29.842Z,95966.23
2022-10-18T10:30:18.310Z,95964.77
2022-10-18T10:32:48.016Z,95959.52
2022-10-18T10:35:53.221Z,95953.77
2022-10-18T10:38:29.222Z,95949.70
2022-10-18T10:40:56.438Z,95940.40
2022-10-18T10:43:38.237Z,95934.15
2022-10-18T10:46:06.140Z,95927.99
2022-10-18T10:48:39.509Z,95926.73
2022-10-18T10:51:09.081Z,95920.20
2022-10-18T10:53:38.171Z,95915.98
2022-10-18T10:56:07.023Z,95909.74
2022-10-18T10:58:41.636Z,95907.29
2022-10-18T11:01:19.279Z,95901.36
2022-10-18T11:03:48.827Z,95893.17
2022-10-18T11:06:37.212Z,95890.38
2022-10-18T11:09:12.965Z,95880.38
2022-10-18T11:11:43.653Z,95880.06
2022-10-18T11:14:26.646Z,95875.95
2022-10-18T11:17:12.987Z,95869.48
2022-10-18T11:20:02.455Z,95864.36
2022-10-18T11:22:36.619Z,95862.17
2022-10-18T11:25:05.284Z,95852.86
2022-10-18T11:28:04.439Z,95849.94
2022-10-18T11:30:53.682Z,95847.91
2022-10-18T11:34:07.739Z,95844.12
2022-10-18T11:36:54.561Z,95835.80
2022-10-18T11:40:09.164Z,95827.10
2022-10-18T11:42:52.373Z,95825.20
2022-10-18T11:45:48.417Z,95819.34
2022-10-18T11:48:42.708Z,95816.52
2022-10-18T11:51:29.768Z,95814.02
2022-10-18T11:54:35.495Z,95811.60
2022-10-18T11:57:30.661Z,95805.83
2022-10-18T12:00:14.235Z,95798.34
2022-10-18T12:02:43.898Z,95797.19
2022-10-18T12:05:23.200Z,95795.55
2022-10-18T12:07:55.811Z,95792.33
2022-10-18T12:10:32.810Z,95788.80
2022-10-18T12:13:17.453Z,95788.69
2022-10-18T12:15:45.733Z,95783.67
2022-10-18T12:18:20.628Z,95779.70
2022-10-18T12:20:54.886Z,95770.21
2022-10-18T12:23:53.554Z,95766.19
2022-10-18T12:26:21.540Z,95765.13
2022-10-18T12:28:59.725Z,95761.61
2022-10-18T12:31:39.306Z,95761.08
2022-10-18T12:34:21.489Z,95754.00
2022-10-18T12:37:20.547Z,95750.09
2022-10-18T12:40:10.175Z,95741.37
2022-10-18T12:42:45.484Z,95745.27
2022-10-18T12:45:33.663Z,95744.05
2022-10-18T12:48:08.048Z,95743.46
2022-10-18T12:50:43.968Z,95738.98
2022-10-18T12:53:10.592Z,95730.66
2022-10-18T12:58:16.284Z,95729.80
2022-10-18T13:00:42.941Z,95724.02
2022-10-18T13:03:09.988Z,95720.19
2022-10-18T13:05:55.057Z,95717.75
2022-10-18T13:08:28.874Z,95716.36
2022-10-18T13:11:01.421Z,95712.64
2022-10-18T13:13:52.527Z,95715.73
2022-10-18T13:16:31.712Z,95708.95
2022-10-18T13:19:37.687Z,95705.30
2022-10-18T13:22:31.936Z,95703.16
2022-10-18T13:25:28.724Z,95701.75
2022-10-18T13:28:05.067Z,95698.16
2022-10-18T13:30:44.671Z,95694.92
2022-10-18T13:33:30.453Z,95692.31
2022-10-18T13:36:22.822Z,95687.23
2022-10-18T13:38:57.941Z,95687.36
2022-10-18T13:41:27.553Z,95683.30
2022-10-18T13:44:12.015Z,95678.89
2022-10-18T13:46:38.669Z,95679.82
2022-10-18T13:49:17.425Z,95675.35
2022-10-18T13:51:56.123Z,95678.62
2022-10-18T13:54:41.355Z,95672.63
2022-10-18T13:57:26.377Z,95675.80
2022-10-18T14:00:23.058Z,95675.12
2022-10-18T14:03:26.615Z,95667.31
2022-10-18T14:06:12.034Z,95668.48
2022-10-18T14:09:25.499Z,95665.94
2022-10-18T14:12:20.860Z,95662.27
2022-10-18T14:14:56.457Z,95661.30
2022-10-18T14:17:54.138Z,95657.02
2022-10-18T14:20:49.099Z,95653.31
2022-10-18T14:23:21.501Z,95651.17
2022-10-18T14:25:48.834Z,95645.09
2022-10-18T14:28:27.347Z,95644.54
2022-10-18T14:31:20.845Z,95641.95
2022-10-18T14:33:57.871Z,95638.17
2022-10-18T14:36:29.937Z,95634.85
2022-10-18T14:38:56.595Z,95633.71
2022-10-18T14:41:35.169Z,95636.52
2022-10-18T14:44:22.067Z,95635.93
2022-10-18T14:46:59.240Z,95632.25
2022-10-18T14:49:26.685Z,95630.30
2022-10-18T14:51:56.913Z,95633.05
2022-10-18T14:54:31.650Z,95630.84
2022-10-18T14:57:00.559Z,95631.52
2022-10-18T14:59:31.048Z,95626.59
2022-10-18T15:02:17.737Z,95627.73
2022-10-18T15:04:46.550Z,95626.80
2022-10-18T15:07:16.703Z,95627.00
2022-10-18T15:09:44.053Z,95623.52
2022-10-18T15:12:14.280Z,95621.29
2022-10-18T15:14:42.733Z,95621.55
2022-10-18T15:17:27.754Z,95618.86
2022-10-18T15:20:05.002Z,95617.02
2022-10-18T15:22:34.055Z,95615.59
2022-10-18T15:25:16.142Z,95613.04
2022-10-18T15:27:58.309Z,95617.03
2022-10-18T15:30:43.208Z,95615.11
2022-10-18T15:33:23.271Z,95613.85
2022-10-18T15:35:52.304Z,95611.17
2022-10-18T15:38:26.050Z,95610.73
2022-10-18T15:40:53.454Z,95607.00
2022-10-18T15:43:23.238Z,95610.83
2022-10-18T15:46:01.598Z,95607.32
2022-10-18T15:48:40.723Z,95610.12
2022-10-18T15:51:12.991Z,95615.41
2022-10-18T15:53:42.806Z,95616.27
2022-10-18T15:56:31.823Z,95614.25
2022-10-18T15:59:03.616Z,95615.22
2022-10-18T16:01:35.574Z,95612.95
2022-10-18T16:04:08.663Z,95621.52
2022-10-18T16:06:37.702Z,95625.35
2022-10-18T16:09:05.201Z,95628.08
2022-10-18T16:11:31.858Z,95623.79
2022-10-18T16:14:00.545Z,95625.96
2022-10-18T16:16:28.999Z,95627.81
2022-10-18T16:18:56.610Z,95631.23
2022-10-18T16:21:35.257Z,95632.21
2022-10-18T16:24:02.285Z,95629.11
2022-10-18T16:26:29.333Z,95631.98
2022-10-18T16:28:57.636Z,95633.29
2022-10-18T16:31:27.237Z,95636.59
2022-10-18T16:33:55.284Z,95634.72
2022-10-18T16:36:25.085Z,95637.21
2022-10-18T16:38:52.395Z,95633.07
2022-10-18T16:41:19.128Z,95634.30
2022-10-18T16:43:47.618Z,95637.77
2022-10-18T16:46:29.566Z,95641.48
2022-10-18T16:48:56.728Z,95640.60
2022-10-18T16:51:24.465Z,95644.13
2022-10-18T16:53:53.489Z,95643.16
2022-10-18T16:56:21.467Z,95641.11
2022-10-18T16:58:49.453Z,95639.46
2022-10-18T17:01:19.724Z,95638.11
2022-10-18T17:03:47.839Z,95638.27
2022-10-18T17:06:33.428Z,95642.38
2022-10-18T17:09:00.945Z,95642.05
2022-10-18T17:11:28.579Z,95641.20
2022-10-18T17:13:56.028Z,95642.46
2022-10-18T17:19:04.202Z,95645.13
2022-10-18T17:21:32.184Z,95644.32
2022-10-18T17:24:01.626Z,95644.60
2022-10-18T17:26:29.907Z,95641.14
2022-10-18T17:29:04.234Z,95645.00
2022-10-18T17:31:32.839Z,95638.11
2022-10-18T17:34:03.860Z,95645.93
2022-10-18T17:36:32.613Z,95641.86
2022-10-18T17:39:00.012Z,95642.77
2022-10-18T17:41:27.896Z,95639.77
2022-10-18T17:43:55.287Z,95631.42
2022-10-18T17:46:24.250Z,95637.38
2022-10-18T17:48:51.331Z,95629.95
2022-10-18T17:51:19.233Z,95627.58
2022-10-18T17:53:47.223Z,95619.66
2022-10-18T17:56:15.234Z,95622.73
2022-10-18T17:58:46.233Z,95620.92
2022-10-18T18:01:15.030Z,95618.71
2022-10-18T18:03:42.261Z,95619.54
2022-10-18T18:06:21.681Z,95622.06
2022-10-18T18:08:50.129Z,95617.83
2022-10-18T18:11:18.427Z,95619.42
2022-10-18T18:13:45.901Z,95616.04
2022-10-18T18:16:19.505Z,95612.26
2022-10-18T18:18:47.678Z,95609.61
2022-10-18T18:21:14.899Z,95613.05
2022-10-18T18:23:42.218Z,95610.52
2022-10-18T18:26:09.240Z,95613.50
2022-10-18T18:28:36.810Z,95613.67
2022-10-18T18:31:08.828Z,95612.53
2022-10-18T18:33:37.531Z,95611.02
2022-10-18T18:36:07.357Z,95613.77
2022-10-18T18:38:37.530Z,95612.17
2022-10-18T18:41:08.014Z,95610.09
2022-10-18T18:43:36.098Z,95611.77
2022-10-18T18:46:04.918Z,95609.23
2022-10-18T18:48:34.647Z,95612.56
2022-10-18T18:51:03.865Z,95608.48
2022-10-18T18:53:31.861Z,95613.26
2022-10-18T18:56:07.872Z,95612.75
2022-10-18T18:58:37.206Z,95614.33
2022-10-18T19:01:13.023Z,95613.14
2022-10-18T19:03:42.218Z,95616.75
2022-10-18T19:06:12.301Z,95615.23
2022-10-18T19:08:40.917Z,95614.41
2022-10-18T19:11:09.708Z,95613.43
2022-10-18T19:13:37.343Z,95611.54
2022-10-18T19:16:40.495Z,95612.88
2022-10-18T19:19:19.392Z,95606.70
2022-10-18T19:21:51.781Z,95608.61
2022-10-18T19:24:21.112Z,95605.36
2022-10-18T19:26:57.036Z,95601.05
2022-10-18T19:29:30.172Z,95600.70
2022-10-18T19:32:00.138Z,95601.60
2022-10-18T19:34:29.210Z,95601.48
2022-10-18T19:36:56.937Z,95600.27
2022-10-18T19:39:29.901Z,95594.95
2022-10-18T19:42:00.369Z,95595.83
2022-10-18T19:44:32.349Z,95595.48
2022-10-18T19:46:59.769Z,95594.48
2022-10-18T19:49:29.134Z,95592.40
2022-10-18T19:51:56.996Z,95592.11
2022-10-18T19:54:25.101Z,95587.32
2022-10-18T19:56:52.422Z,95588.81
2022-10-18T19:59:19.764Z,95589.98
2022-10-18T20:01:46.868Z,95583.25
2022-10-18T20:04:14.664Z,95583.17
2022-10-18T20:06:42.712Z,95584.12
2022-10-18T20:09:13.485Z,95590.89
2022-10-18T20:11:43.067Z,95587.64
2022-10-18T20:14:11.261Z,95589.75
2022-10-18T20:16:38.186Z,95584.98
2022-10-18T20:19:08.415Z,95583.73
2022-10-18T20:21:36.488Z,95585.52
2022-10-18T20:24:04.793Z,95583.66
2022-10-18T20:26:32.292Z,95586.92
2022-10-18T20:29:00.006Z,95585.84
2022-10-18T20:31:31.914Z,95584.38
2022-10-18T20:34:03.887Z,95585.56
2022-10-18T20:36:32.476Z,95584.25
2022-10-18T20:38:59.692Z,95584.95
2022-10-18T20:41:32.064Z,95582.19
2022-10-18T20:44:01.716Z,95581.67
2022-10-18T20:46:34.055Z,95580.77
2022-10-18T20:49:00.960Z,95584.34
2022-10-18T20:51:28.037Z,95585.13
2022-10-18T20:53:55.051Z,95579.55
2022-10-18T20:56:26.762Z,95577.02
2022-10-18T20:58:57.644Z,95576.02
2022-10-18T21:01:30.642Z,95573.64
2022-10-18T21:04:00.168Z,95576.67
2022-10-18T21:06:28.351Z,95568.70
2022-10-18T21:09:00.923Z,95564.47
2022-10-18T21:11:29.080Z,95561.06
2022-10-18T21:14:00.262Z,95565.17
2022-10-18T21:16:27.714Z,95557.90
